Terminal Aerodrome Forecast
Issued by NWS Sterling, VA

Current Version | Previous Version | Text Only | Print | Product List | Glossary Off
Versions: 1 2 3 4 5 6 7 8 9 10 11 12 13 14 15 16 17 18 19 20 21

941
FTUS41 KLWX 091511 AAB
TAFIAD
TAF AMD
KIAD 091511Z 0915/1018 31005KT 1SM -SN BR BKN004 OVC007
     FM091700 33006KT 3SM -SHSN BKN007 OVC025
     FM092100 31007KT P6SM -SHRASN OVC030
     FM100100 29008KT P6SM OVC050=

USA.gov is the U.S. government's official web portal to all federal, state and local government web resources and services.